createdAt,value
2023-02-14T00:00:43.138Z,18.87
2023-02-14T00:03:09.607Z,17.07
2023-02-14T00:05:36.139Z,17.67
2023-02-14T00:08:02.558Z,18.63
2023-02-14T00:10:29.050Z,16.50
2023-02-14T00:12:55.492Z,12.43
2023-02-14T00:15:25.887Z,13.17
2023-02-14T00:17:55.442Z,12.57
2023-02-14T00:20:23.167Z,15.23
2023-02-14T00:22:50.359Z,14.77
2023-02-14T00:25:18.137Z,12.63
2023-02-14T00:27:45.033Z,10.43
2023-02-14T00:30:13.638Z,11.37
2023-02-14T00:32:41.573Z,10.70
2023-02-14T00:35:09.346Z,13.93
2023-02-14T00:37:36.049Z,12.10
2023-02-14T00:40:02.827Z,12.30
2023-02-14T00:42:29.272Z,13.20
2023-02-14T00:44:55.761Z,10.67
2023-02-14T00:47:22.283Z,13.73
2023-02-14T00:49:48.789Z,11.97
2023-02-14T00:52:15.430Z,11.30
2023-02-14T00:54:42.112Z,14.03
2023-02-14T00:57:08.596Z,13.07
2023-02-14T00:59:36.304Z,12.13
2023-02-14T01:02:04.015Z,12.23
2023-02-14T01:04:30.506Z,12.77
2023-02-14T01:06:57.014Z,14.10
2023-02-14T01:09:23.426Z,12.43
2023-02-14T01:11:50.118Z,10.67
2023-02-14T01:14:16.534Z,10.73
2023-02-14T01:16:42.989Z,11.47
2023-02-14T01:19:09.496Z,10.40
2023-02-14T01:21:36.036Z,9.43
2023-02-14T01:24:06.158Z,9.43
2023-02-14T01:26:34.188Z,7.80
2023-02-14T01:29:01.715Z,10.63
2023-02-14T01:31:31.553Z,8.53
2023-02-14T01:33:59.422Z,9.53
2023-02-14T01:36:36.491Z,8.30
2023-02-14T01:39:11.508Z,8.57
2023-02-14T01:41:39.745Z,7.93
2023-02-14T01:44:26.401Z,7.23
2023-02-14T01:46:52.975Z,7.23
2023-02-14T01:49:47.473Z,7.00
2023-02-14T01:52:37.648Z,11.20
2023-02-14T01:55:13.008Z,8.17
2023-02-14T01:57:54.046Z,8.00
2023-02-14T02:00:40.577Z,11.57
2023-02-14T02:03:08.192Z,13.27
2023-02-14T02:05:40.084Z,12.10
2023-02-14T02:08:06.716Z,12.77
2023-02-14T02:10:33.146Z,11.80
2023-02-14T02:13:05.950Z,13.27
2023-02-14T02:15:42.370Z,11.57
2023-02-14T02:18:29.949Z,11.47
2023-02-14T02:21:15.199Z,12.90
2023-02-14T02:23:59.030Z,12.07
2023-02-14T02:26:57.110Z,12.47
2023-02-14T02:29:56.626Z,12.43
2023-02-14T02:33:01.756Z,11.40
2023-02-14T02:35:50.044Z,11.33
2023-02-14T02:38:55.333Z,15.17
2023-02-14T02:41:53.052Z,12.27
2023-02-14T02:44:35.862Z,13.03
2023-02-14T02:47:31.152Z,12.77
2023-02-14T02:50:32.858Z,14.63
2023-02-14T02:53:05.440Z,14.30
2023-02-14T02:55:53.026Z,12.63
2023-02-14T02:58:22.479Z,14.33
2023-02-14T03:00:53.057Z,13.17
2023-02-14T03:03:43.312Z,15.20
2023-02-14T03:06:09.875Z,14.23
2023-02-14T03:08:36.290Z,12.53
2023-02-14T03:11:04.872Z,13.67
2023-02-14T03:14:03.140Z,14.13
2023-02-14T03:16:41.655Z,15.43
2023-02-14T03:19:55.323Z,16.80
2023-02-14T03:22:35.084Z,14.67
2023-02-14T03:25:16.534Z,12.03
2023-02-14T03:28:18.860Z,11.47
2023-02-14T03:31:02.546Z,13.30
2023-02-14T03:33:41.140Z,15.23
2023-02-14T03:36:31.604Z,12.60
2023-02-14T03:39:15.982Z,14.00
2023-02-14T03:42:06.292Z,11.60
2023-02-14T03:44:35.312Z,12.97
2023-02-14T03:47:07.448Z,14.17
2023-02-14T03:49:39.792Z,15.53
2023-02-14T03:52:09.676Z,14.73
2023-02-14T03:54:36.610Z,14.23
2023-02-14T03:57:22.182Z,15.80
2023-02-14T03:59:48.996Z,14.73
2023-02-14T04:02:23.349Z,14.63
2023-02-14T04:04:51.610Z,13.73
2023-02-14T04:07:21.020Z,14.00
2023-02-14T04:09:48.290Z,15.90
2023-02-14T04:12:16.950Z,15.20
2023-02-14T04:14:44.794Z,10.77
2023-02-14T04:17:30.133Z,14.07
2023-02-14T04:19:56.656Z,12.87
2023-02-14T04:22:23.191Z,13.67
2023-02-14T04:24:49.679Z,15.30
2023-02-14T04:27:16.162Z,13.97
2023-02-14T04:29:44.219Z,14.53
2023-02-14T04:32:17.477Z,13.50
2023-02-14T04:34:44.552Z,16.37
2023-02-14T04:37:11.762Z,17.07
2023-02-14T04:39:39.347Z,17.07
2023-02-14T04:42:06.512Z,18.80
2023-02-14T04:44:34.089Z,16.90
2023-02-14T04:47:01.591Z,18.37
2023-02-14T04:49:28.025Z,15.63
2023-02-14T04:51:54.628Z,16.73
2023-02-14T04:54:22.009Z,14.17
2023-02-14T04:56:48.994Z,17.27
2023-02-14T04:59:15.578Z,17.97
2023-02-14T05:01:42.336Z,17.50
2023-02-14T05:04:08.926Z,19.33
2023-02-14T05:06:35.444Z,16.50
2023-02-14T05:09:02.363Z,19.33
2023-02-14T05:11:29.428Z,20.77
2023-02-14T05:13:56.202Z,16.73
2023-02-14T05:16:23.105Z,18.57
2023-02-14T05:18:49.712Z,18.40
2023-02-14T05:21:16.264Z,19.23
2023-02-14T05:23:42.680Z,20.80
2023-02-14T05:26:09.217Z,19.90
2023-02-14T05:28:36.136Z,20.23
2023-02-14T05:31:03.152Z,21.40
2023-02-14T05:33:29.928Z,20.90
2023-02-14T05:35:59.891Z,19.33
2023-02-14T05:38:26.485Z,21.33
2023-02-14T05:40:52.954Z,19.77
2023-02-14T05:43:19.456Z,22.13
2023-02-14T05:45:45.966Z,22.87
2023-02-14T05:48:13.264Z,27.57
2023-02-14T05:50:39.701Z,30.67
2023-02-14T05:53:06.834Z,28.60
2023-02-14T05:55:33.350Z,31.80
2023-02-14T05:57:59.779Z,22.20
2023-02-14T06:00:26.455Z,27.77
2023-02-14T06:02:52.982Z,28.37
2023-02-14T06:05:20.156Z,34.30
2023-02-14T06:07:50.531Z,28.17
2023-02-14T06:10:22.086Z,23.73
2023-02-14T06:12:49.747Z,23.33
2023-02-14T06:15:16.414Z,21.43
2023-02-14T06:17:43.449Z,20.27
2023-02-14T06:20:11.435Z,19.10
2023-02-14T06:22:39.100Z,21.30
2023-02-14T06:25:06.537Z,25.93
2023-02-14T06:27:33.360Z,23.93
2023-02-14T06:29:59.972Z,23.37
2023-02-14T06:32:26.670Z,21.50
2023-02-14T06:34:53.116Z,23.67
2023-02-14T06:37:20.097Z,22.00
2023-02-14T06:39:46.673Z,29.97
2023-02-14T06:42:13.153Z,28.57
2023-02-14T06:44:39.637Z,27.30
2023-02-14T06:47:07.961Z,29.67
2023-02-14T06:49:34.656Z,34.10
2023-02-14T06:52:01.130Z,31.73
2023-02-14T06:54:28.654Z,33.63
2023-02-14T06:56:55.132Z,26.30
2023-02-14T06:59:21.727Z,37.10
2023-02-14T07:01:48.336Z,40.23
2023-02-14T07:04:15.003Z,48.83
2023-02-14T07:06:41.589Z,30.83
2023-02-14T07:09:08.491Z,32.77
2023-02-14T07:11:34.965Z,37.97
2023-02-14T07:14:01.446Z,27.77
2023-02-14T07:16:27.963Z,29.90
2023-02-14T07:18:54.369Z,29.97
2023-02-14T07:21:20.854Z,31.27
2023-02-14T07:23:49.898Z,29.40
2023-02-14T07:26:18.098Z,32.03
2023-02-14T07:28:45.859Z,28.27
2023-02-14T07:31:12.700Z,27.77
2023-02-14T07:33:39.560Z,26.17
2023-02-14T07:36:07.884Z,25.13
2023-02-14T07:38:35.607Z,25.00
2023-02-14T07:41:02.549Z,27.50
2023-02-14T07:43:29.221Z,24.73
2023-02-14T07:45:55.778Z,24.87
2023-02-14T07:48:22.408Z,24.43
2023-02-14T07:50:48.908Z,23.47
2023-02-14T07:53:15.359Z,23.63
2023-02-14T07:55:41.807Z,23.60
2023-02-14T07:58:09.472Z,21.83
2023-02-14T08:00:35.924Z,23.30
2023-02-14T08:03:02.384Z,25.63
2023-02-14T08:05:29.672Z,24.30
2023-02-14T08:07:56.116Z,24.10
2023-02-14T08:10:22.872Z,27.23
2023-02-14T08:13:01.741Z,23.53
2023-02-14T08:15:51.486Z,23.20
2023-02-14T08:18:19.958Z,21.90
2023-02-14T08:20:49.633Z,25.53
2023-02-14T08:23:18.564Z,23.10
2023-02-14T08:25:45.423Z,22.63
2023-02-14T08:28:13.675Z,22.57
2023-02-14T08:30:40.980Z,21.03
2023-02-14T08:33:08.588Z,20.13
2023-02-14T08:35:36.027Z,22.47
2023-02-14T08:38:02.480Z,22.00
2023-02-14T08:40:29.030Z,24.23
2023-02-14T08:42:55.530Z,21.43
2023-02-14T08:45:22.095Z,21.40
2023-02-14T08:47:48.784Z,22.73
2023-02-14T08:50:17.456Z,23.30
2023-02-14T08:52:44.472Z,25.07
2023-02-14T08:55:11.664Z,28.90
2023-02-14T08:57:38.401Z,29.03
2023-02-14T09:00:07.665Z,26.63
2023-02-14T09:02:34.441Z,25.27
2023-02-14T09:05:01.104Z,23.67
2023-02-14T09:07:27.669Z,28.50
2023-02-14T09:09:54.144Z,26.63
2023-02-14T09:12:20.591Z,25.40
2023-02-14T09:14:47.674Z,26.13
2023-02-14T09:17:15.278Z,24.50
2023-02-14T09:19:42.332Z,23.40
2023-02-14T09:22:10.391Z,21.67
2023-02-14T09:24:38.646Z,20.77
2023-02-14T09:27:05.746Z,21.13
2023-02-14T09:29:34.255Z,21.23
2023-02-14T09:32:01.951Z,28.27
2023-02-14T09:34:48.611Z,25.33
2023-02-14T09:37:33.984Z,24.70
2023-02-14T09:40:00.836Z,22.53
2023-02-14T09:42:27.250Z,20.57
2023-02-14T09:45:07.109Z,18.63
2023-02-14T09:47:40.447Z,20.47
2023-02-14T09:50:19.130Z,18.17
2023-02-14T09:52:49.751Z,17.43
2023-02-14T09:55:18.005Z,18.43
2023-02-14T09:58:13.308Z,19.70
2023-02-14T10:00:48.721Z,18.83
2023-02-14T10:03:48.026Z,18.17
2023-02-14T10:06:38.849Z,17.57
2023-02-14T10:09:28.646Z,17.90
2023-02-14T10:11:57.954Z,17.10
2023-02-14T10:14:29.957Z,16.90
2023-02-14T10:17:15.082Z,17.70
2023-02-14T10:19:48.347Z,16.77
2023-02-14T10:22:18.259Z,17.20
2023-02-14T10:24:47.643Z,17.53
2023-02-14T10:27:42.521Z,16.53
2023-02-14T10:30:18.172Z,17.80
2023-02-14T10:33:11.099Z,18.17
2023-02-14T10:35:51.190Z,17.87
2023-02-14T10:38:46.461Z,17.77
2023-02-14T10:41:35.749Z,15.30
2023-02-14T10:44:20.540Z,18.00
2023-02-14T10:47:04.488Z,15.70
2023-02-14T10:49:53.428Z,17.90
2023-02-14T10:52:29.431Z,18.17
2023-02-14T10:55:00.031Z,17.43
2023-02-14T10:57:36.614Z,17.33
2023-02-14T11:00:07.188Z,16.83
2023-02-14T11:02:40.074Z,17.67
2023-02-14T11:05:17.751Z,17.47
2023-02-14T11:07:44.658Z,18.23
2023-02-14T11:10:14.691Z,16.67
2023-02-14T11:12:41.833Z,17.77
2023-02-14T11:15:17.281Z,16.47
2023-02-14T11:17:43.838Z,18.07
2023-02-14T11:20:30.312Z,18.97
2023-02-14T11:22:57.546Z,16.40
2023-02-14T11:25:29.745Z,18.87
2023-02-14T11:28:05.940Z,17.43
2023-02-14T11:30:40.864Z,18.80
2023-02-14T11:33:13.278Z,19.23
2023-02-14T11:35:40.035Z,18.73
2023-02-14T11:38:24.898Z,16.30
2023-02-14T11:40:55.938Z,17.57
2023-02-14T11:43:38.118Z,18.63
2023-02-14T11:46:14.901Z,17.00
2023-02-14T11:48:59.633Z,20.97
2023-02-14T11:51:29.826Z,19.70
2023-02-14T11:54:01.601Z,17.50
2023-02-14T11:56:54.369Z,20.40
2023-02-14T11:59:44.095Z,22.33
2023-02-14T12:02:32.706Z,19.60
2023-02-14T12:05:04.874Z,21.40
2023-02-14T12:07:37.735Z,20.33
2023-02-14T12:10:15.585Z,20.23
2023-02-14T12:12:50.153Z,23.07
2023-02-14T12:15:25.690Z,19.33
2023-02-14T12:18:00.579Z,23.63
2023-02-14T12:20:38.021Z,21.87
2023-02-14T12:23:17.560Z,21.50
2023-02-14T12:25:52.738Z,19.67
2023-02-14T12:28:25.935Z,21.67
2023-02-14T12:30:52.491Z,21.47
2023-02-14T12:33:21.745Z,23.43
2023-02-14T12:36:24.308Z,21.00
2023-02-14T12:39:08.493Z,22.00
2023-02-14T12:42:00.567Z,23.53
2023-02-14T12:44:57.662Z,22.37
2023-02-14T12:47:39.091Z,22.90
2023-02-14T12:50:21.529Z,23.27
2023-02-14T12:53:06.106Z,23.23
2023-02-14T12:55:42.110Z,21.83
2023-02-14T12:58:44.114Z,23.50
2023-02-14T13:01:24.763Z,23.67
2023-02-14T13:04:47.447Z,25.23
2023-02-14T13:07:29.834Z,23.07
2023-02-14T13:10:25.071Z,23.03
2023-02-14T13:13:14.338Z,23.70
2023-02-14T13:15:45.012Z,22.07
2023-02-14T13:18:36.566Z,24.00
2023-02-14T13:21:06.351Z,24.03
2023-02-14T13:23:41.154Z,27.87
2023-02-14T13:26:14.705Z,24.87
2023-02-14T13:29:10.765Z,26.40
2023-02-14T13:31:38.688Z,24.00
2023-02-14T13:34:13.714Z,24.70
2023-02-14T13:36:40.989Z,26.17
2023-02-14T13:39:13.918Z,23.83
2023-02-14T13:41:41.788Z,26.57
2023-02-14T13:44:08.385Z,25.43
2023-02-14T13:46:35.228Z,27.03
2023-02-14T13:49:23.471Z,25.47
2023-02-14T13:51:57.178Z,27.20
2023-02-14T13:54:47.530Z,32.00
2023-02-14T13:57:36.434Z,26.93
2023-02-14T14:00:19.335Z,27.87
2023-02-14T14:02:56.598Z,29.33
2023-02-14T14:05:50.007Z,31.23
2023-02-14T14:08:29.866Z,30.27
2023-02-14T14:10:59.802Z,31.07
2023-02-14T14:13:41.873Z,31.47
2023-02-14T14:16:23.599Z,30.27
2023-02-14T14:19:16.362Z,31.57
2023-02-14T14:21:45.524Z,31.93
2023-02-14T14:24:22.955Z,32.27
2023-02-14T14:27:06.485Z,32.77
2023-02-14T14:29:59.626Z,34.13
2023-02-14T14:32:29.983Z,33.67
2023-02-14T14:35:21.660Z,33.80
2023-02-14T14:38:01.048Z,31.43
2023-02-14T14:40:34.913Z,33.40
2023-02-14T14:43:10.266Z,33.83
2023-02-14T14:45:40.955Z,32.10
2023-02-14T14:48:14.021Z,32.47
2023-02-14T14:50:45.700Z,33.63
2023-02-14T14:53:23.523Z,35.63
2023-02-14T14:55:54.446Z,35.43
2023-02-14T14:58:39.589Z,36.67
2023-02-14T15:01:21.381Z,37.13
2023-02-14T15:03:48.915Z,38.73
2023-02-14T15:06:22.737Z,38.33
2023-02-14T15:08:49.962Z,32.07
2023-02-14T15:11:41.916Z,37.47
2023-02-14T15:14:15.767Z,36.00
2023-02-14T15:17:14.033Z,35.33
2023-02-14T15:19:44.747Z,36.90
2023-02-14T15:22:25.924Z,36.03
2023-02-14T15:24:57.908Z,38.07
2023-02-14T15:27:26.614Z,35.03
2023-02-14T15:30:10.046Z,35.13
2023-02-14T15:32:40.291Z,36.47
2023-02-14T15:35:14.688Z,39.43
2023-02-14T15:37:45.335Z,36.87
2023-02-14T15:40:23.106Z,38.27
2023-02-14T15:42:57.417Z,37.27
2023-02-14T15:45:28.793Z,41.30
2023-02-14T15:47:59.208Z,39.40
2023-02-14T15:50:33.067Z,39.70
2023-02-14T15:53:17.273Z,40.43
2023-02-14T15:55:44.599Z,40.73
2023-02-14T15:58:23.157Z,40.90
2023-02-14T16:00:53.382Z,42.43
2023-02-14T16:03:26.871Z,36.97
2023-02-14T16:05:55.044Z,39.50
2023-02-14T16:08:31.641Z,37.70
2023-02-14T16:11:30.065Z,33.97
2023-02-14T16:13:56.928Z,38.87
2023-02-14T16:16:23.896Z,33.90
2023-02-14T16:18:56.601Z,36.50
2023-02-14T16:21:27.575Z,36.97
2023-02-14T16:24:11.286Z,35.03
2023-02-14T16:26:39.544Z,37.93
2023-02-14T16:29:08.358Z,38.47
2023-02-14T16:31:38.516Z,40.77
2023-02-14T16:34:05.568Z,39.20
2023-02-14T16:36:34.495Z,42.27
2023-02-14T16:39:05.960Z,38.57
2023-02-14T16:41:34.607Z,41.53
2023-02-14T16:44:01.520Z,40.87
2023-02-14T16:46:31.555Z,38.80
2023-02-14T16:48:59.562Z,38.87
2023-02-14T16:51:29.890Z,40.87
2023-02-14T16:54:00.592Z,35.87
2023-02-14T16:56:36.791Z,38.10
2023-02-14T16:59:03.686Z,39.80
2023-02-14T17:01:30.357Z,36.37
2023-02-14T17:03:58.694Z,38.37
2023-02-14T17:06:28.637Z,39.17
2023-02-14T17:08:58.526Z,36.83
2023-02-14T17:11:27.478Z,35.63
2023-02-14T17:13:55.078Z,37.70
2023-02-14T17:16:22.630Z,39.23
2023-02-14T17:18:52.153Z,40.33
2023-02-14T17:21:23.516Z,36.83
2023-02-14T17:23:50.781Z,39.70
2023-02-14T17:26:19.036Z,34.33
2023-02-14T17:28:47.575Z,33.40
2023-02-14T17:31:17.038Z,34.37
2023-02-14T17:33:54.521Z,36.87
2023-02-14T17:36:32.188Z,33.87
2023-02-14T17:39:09.309Z,34.73
2023-02-14T17:41:36.571Z,35.70
2023-02-14T17:44:05.181Z,39.80
2023-02-14T17:46:32.680Z,34.87
2023-02-14T17:49:03.220Z,40.93
2023-02-14T17:51:30.888Z,38.17
2023-02-14T17:53:59.034Z,50.60
2023-02-14T17:56:26.213Z,50.67
2023-02-14T17:58:55.285Z,41.63
2023-02-14T18:01:24.629Z,42.00
2023-02-14T18:03:53.028Z,39.87
2023-02-14T18:06:19.820Z,39.20
2023-02-14T18:08:53.588Z,37.60
2023-02-14T18:11:21.643Z,42.20
2023-02-14T18:13:48.645Z,42.53
2023-02-14T18:16:18.460Z,39.67
2023-02-14T18:18:45.898Z,41.27
2023-02-14T18:21:25.725Z,41.93
2023-02-14T18:24:06.668Z,40.43
2023-02-14T18:26:34.732Z,40.30
2023-02-14T18:29:06.802Z,43.10
2023-02-14T18:31:35.622Z,38.70
2023-02-14T18:34:05.640Z,44.43
2023-02-14T18:36:36.179Z,41.73
2023-02-14T18:39:04.213Z,38.67
2023-02-14T18:41:31.961Z,41.20
2023-02-14T18:43:59.110Z,48.43
2023-02-14T18:46:30.684Z,40.57
2023-02-14T18:48:57.914Z,37.37
2023-02-14T18:51:27.603Z,42.83
2023-02-14T18:53:59.981Z,36.07
2023-02-14T18:56:30.651Z,35.80
2023-02-14T18:59:04.859Z,36.13
2023-02-14T19:01:36.938Z,37.87
2023-02-14T19:04:09.326Z,51.63
2023-02-14T19:06:40.968Z,38.83
2023-02-14T19:09:13.557Z,37.33
2023-02-14T19:11:42.104Z,42.77
2023-02-14T19:14:13.804Z,57.63
2023-02-14T19:16:51.266Z,51.73
2023-02-14T19:19:24.116Z,40.03
2023-02-14T19:21:52.051Z,88.60
2023-02-14T19:24:19.929Z,68.33
2023-02-14T19:26:48.358Z,65.87
2023-02-14T19:29:18.299Z,78.90
2023-02-14T19:31:48.400Z,57.70
2023-02-14T19:34:29.319Z,98.47
2023-02-14T19:36:59.130Z,137.37
2023-02-14T19:39:29.648Z,85.37
2023-02-14T19:41:58.223Z,63.13
2023-02-14T19:44:26.804Z,103.80
2023-02-14T19:46:59.828Z,60.53
2023-02-14T19:49:33.217Z,57.00
2023-02-14T19:52:00.159Z,69.90
2023-02-14T19:54:29.969Z,64.70
2023-02-14T19:56:57.445Z,133.27
2023-02-14T19:59:28.643Z,62.80
2023-02-14T20:01:56.573Z,89.00
2023-02-14T20:04:27.832Z,80.40
2023-02-14T20:06:56.101Z,38.93
2023-02-14T20:09:23.738Z,63.23
2023-02-14T20:11:54.404Z,119.23
2023-02-14T20:14:25.092Z,69.90
2023-02-14T20:16:54.012Z,38.73
2023-02-14T20:19:23.442Z,51.73
2023-02-14T20:21:51.230Z,44.07
2023-02-14T20:24:20.547Z,54.57
2023-02-14T20:26:48.190Z,47.00
2023-02-14T20:29:16.280Z,37.57
2023-02-14T20:31:45.563Z,33.67
2023-02-14T20:34:13.200Z,53.53
2023-02-14T20:36:41.233Z,81.47
2023-02-14T20:39:09.721Z,51.77
2023-02-14T20:41:36.429Z,40.00
2023-02-14T20:44:10.687Z,32.53
2023-02-14T20:46:37.659Z,41.13
2023-02-14T20:49:05.747Z,67.90
2023-02-14T20:51:34.971Z,35.63
2023-02-14T20:54:04.004Z,36.40
2023-02-14T20:56:31.129Z,37.37
2023-02-14T20:59:00.681Z,34.53
2023-02-14T21:01:27.950Z,35.63
2023-02-14T21:03:55.499Z,33.93
2023-02-14T21:06:28.157Z,32.13
2023-02-14T21:08:55.440Z,34.37
2023-02-14T21:11:24.315Z,33.03
2023-02-14T21:13:57.583Z,37.07
2023-02-14T21:16:25.850Z,31.67
2023-02-14T21:18:59.329Z,28.13
2023-02-14T21:21:26.213Z,26.70
2023-02-14T21:23:53.855Z,28.33
2023-02-14T21:26:21.401Z,26.87
2023-02-14T21:28:49.318Z,28.10
2023-02-14T21:31:21.241Z,29.03
2023-02-14T21:33:57.487Z,28.10
2023-02-14T21:36:26.561Z,26.20
2023-02-14T21:38:58.884Z,28.67
2023-02-14T21:41:29.794Z,29.33
2023-02-14T21:43:57.935Z,32.97
2023-02-14T21:46:31.518Z,32.43
2023-02-14T21:49:22.683Z,35.87
2023-02-14T21:51:49.241Z,41.23
2023-02-14T21:54:16.793Z,34.67
2023-02-14T21:56:43.938Z,35.47
2023-02-14T21:59:11.101Z,33.90
2023-02-14T22:01:39.579Z,33.53
2023-02-14T22:04:09.484Z,27.63
2023-02-14T22:06:38.371Z,31.80
2023-02-14T22:09:05.910Z,34.83
2023-02-14T22:11:35.379Z,33.47
2023-02-14T22:14:02.220Z,33.10
2023-02-14T22:16:29.164Z,33.93
2023-02-14T22:18:56.046Z,43.90
2023-02-14T22:21:25.785Z,36.90
2023-02-14T22:23:53.211Z,39.73
2023-02-14T22:26:29.054Z,32.57
2023-02-14T22:29:00.785Z,36.57
2023-02-14T22:31:33.162Z,35.87
2023-02-14T22:34:00.023Z,37.20
2023-02-14T22:36:26.912Z,32.13
2023-02-14T22:38:53.817Z,35.13
2023-02-14T22:41:23.924Z,31.03
2023-02-14T22:43:52.448Z,34.63
2023-02-14T22:46:23.478Z,41.60
2023-02-14T22:48:51.526Z,41.50
2023-02-14T22:51:21.654Z,38.10
2023-02-14T22:53:50.848Z,42.57
2023-02-14T22:56:26.268Z,37.83
2023-02-14T22:58:58.642Z,43.00
2023-02-14T23:01:26.007Z,39.87
2023-02-14T23:03:57.827Z,42.27
2023-02-14T23:06:26.946Z,47.33
2023-02-14T23:08:54.545Z,59.37
2023-02-14T23:11:24.643Z,40.57
2023-02-14T23:14:13.013Z,36.80
2023-02-14T23:16:58.815Z,35.57
2023-02-14T23:19:46.734Z,36.83
2023-02-14T23:22:17.128Z,36.53
2023-02-14T23:24:45.656Z,35.90
2023-02-14T23:27:12.273Z,40.80
2023-02-14T23:29:38.816Z,37.63
2023-02-14T23:32:06.624Z,38.20
2023-02-14T23:34:35.562Z,33.13
2023-02-14T23:37:02.394Z,41.60
2023-02-14T23:39:29.149Z,37.57
2023-02-14T23:41:56.109Z,36.53
2023-02-14T23:44:28.082Z,32.83
2023-02-14T23:46:58.864Z,37.40
2023-02-14T23:49:26.618Z,40.60
2023-02-14T23:51:55.826Z,36.13
2023-02-14T23:54:24.008Z,81.57
2023-02-14T23:56:52.494Z,37.17
2023-02-14T23:59:21.037Z,40.20
